Mesquite, Nevada Weather observations

Data are for observation ending at time listed.
 Day   Time    Ave.   Ave.  Ave.  Vector   Max.   Stn.    Total    Solar   Ave.  
  of    of     Air    Rel.  Wind   Wind    Wind   Baro.  Precip.   Rad.    Soil  
Year   Day     Temp.  Hum.  Speed  Dir.    Gust   Pres.                    Temp. 
2015   (PST)    F      %     mph   deg.    mph     mb.     in.     W/m2     F   
------------------------------------------------------------------------------
  90    1:50  99999.0   99999  99999.0   99999    99999.0  99999.0   99999.00   99999    99999.0
  90    2:00  99999.0   99999  99999.0   99999    99999.0  99999.0   99999.00   99999    99999.0
  90    2:10  99999.0   99999  99999.0   99999    99999.0  99999.0   99999.00   99999    99999.0
  90    2:20  99999.0   99999  99999.0   99999    99999.0  99999.0   99999.00   99999    99999.0
  90    2:30  99999.0   99999  99999.0   99999    99999.0  99999.0   99999.00   99999    99999.0
  90    2:40  99999.0   99999  99999.0   99999    99999.0  99999.0   99999.00   99999    99999.0
  90    2:50  99999.0   99999  99999.0   99999    99999.0  99999.0   99999.00   99999    99999.0
  90    3:00  99999.0   99999  99999.0   99999    99999.0  99999.0   99999.00   99999    99999.0
  90    3:10  99999.0   99999  99999.0   99999    99999.0  99999.0   99999.00   99999    99999.0
  90    3:20  99999.0   99999  99999.0   99999    99999.0  99999.0   99999.00   99999    99999.0
  90    3:30  99999.0   99999  99999.0   99999    99999.0  99999.0   99999.00   99999    99999.0
  90    3:40  99999.0   99999  99999.0   99999    99999.0  99999.0   99999.00   99999    99999.0
  90    3:50  99999.0   99999  99999.0   99999    99999.0  99999.0   99999.00   99999    99999.0
  90    4:00  99999.0   99999  99999.0   99999    99999.0  99999.0   99999.00   99999    99999.0
  90    4:10  99999.0   99999  99999.0   99999    99999.0  99999.0   99999.00   99999    99999.0
  90    4:20  99999.0   99999  99999.0   99999    99999.0  99999.0   99999.00   99999    99999.0
  90    4:30  99999.0   99999  99999.0   99999    99999.0  99999.0   99999.00   99999    99999.0
  90    4:40  99999.0   99999  99999.0   99999    99999.0  99999.0   99999.00   99999    99999.0
  90    4:50  99999.0   99999  99999.0   99999    99999.0  99999.0   99999.00   99999    99999.0
  90    5:00  99999.0   99999  99999.0   99999    99999.0  99999.0   99999.00   99999    99999.0
  90    5:10  99999.0   99999  99999.0   99999    99999.0  99999.0   99999.00   99999    99999.0
  90    5:20  99999.0   99999  99999.0   99999    99999.0  99999.0   99999.00   99999    99999.0
  90    5:30  99999.0   99999  99999.0   99999    99999.0  99999.0   99999.00   99999    99999.0
  90    5:40  99999.0   99999  99999.0   99999    99999.0  99999.0   99999.00   99999    99999.0
  90    5:50  99999.0   99999  99999.0   99999    99999.0  99999.0   99999.00   99999    99999.0
  90    6:00  99999.0   99999  99999.0   99999    99999.0  99999.0   99999.00   99999    99999.0
  90    6:10  99999.0   99999  99999.0   99999    99999.0  99999.0   99999.00   99999    99999.0
  90    6:20   59.3    29    0.0   142      0.1   948.3    0.00     104    58.6
  90    6:30   57.8    29    0.4   129      4.1   948.5    0.00     133    58.6
  90    6:40   58.5    28    0.0   116      2.6   948.6    0.00     157    60.0
  90    6:50   59.4    26    0.1   111      3.8   948.7    0.00     130    61.0
  90    7:00   61.2    25    0.7    81      3.9   948.6    0.00     178    63.4
  90    7:10   63.3    23    1.2    54      3.4   948.6    0.00     219    64.2
  90    7:20   67.3    20    0.3    55      2.1   948.6    0.00     254    65.2
  90    7:30   68.5    20    0.2   288      1.6   948.6    0.00     278    66.1
  90    7:40   70.0    18    0.2    78      1.5   948.6    0.00     307    68.5
  90    7:50   70.4    17    0.1   334      1.2   948.6    0.00     321    69.0
  90    8:00   71.4    18    0.3   215      2.1   948.6    0.00     329    70.5
  90    8:10   70.2    19    1.7   242      3.4   948.6    0.00     345    70.9
  90    8:20   70.2    18    1.4   245      3.9   948.6    0.00     379    72.0
  90    8:30   71.3    17    1.0   233      3.2   948.6    0.00     418    73.5
  90    8:40   72.8    16    0.5   183      3.1   948.6    0.00     432    75.6
  90    8:50   74.8    16    1.5   173      3.8   948.6    0.00     453    77.8
  90    9:00   74.3    17    0.9   233      3.2   948.6    0.00     480    78.9
  90    9:10   77.2    15    1.1   169      3.1   948.6    0.00     463    80.9
  90    9:20   76.4    16    1.9   227      3.6   948.5    0.00     495    80.1
  90    9:30   77.5    15    1.2   213      3.1   948.5    0.00     531    83.0
  90    9:40   79.3    15    1.6   205      3.7   948.4    0.00     572    84.9
  90    9:50   79.6    14    1.8   232      3.0   948.3    0.00     572    86.9
  90   10:00   81.2    14    1.4   169      3.5   948.2    0.00     498    87.7
  90   10:10   82.9    13    1.0   196      3.0   948.2    0.00     563    88.4
  90   10:20   84.0    13    0.8   209      2.4   948.1    0.00     470    90.1
  90   10:30   83.7    13    1.5   228      3.8   948.0    0.00     506    89.5
  90   10:40   83.3    12    3.2   253      6.6   947.9    0.00     544    90.3
  90   10:50   83.1    13    3.7   250      7.1   947.7    0.00     574    91.4
  90   11:00   82.8    13    4.3   238      9.2   947.7    0.00     487    90.3
  90   11:10   83.7    13    3.7   249      7.5   947.5    0.00     663    94.6
  90   11:20   84.5    12    4.7   255      9.2   947.3    0.00     682    95.3
  90   11:30   84.8    12    3.3   261      7.5   947.1    0.00     645    96.2
  90   11:40   84.9    11    3.0   224      6.1   946.9    0.00     431    94.6
  90   11:50   85.5    12    3.3   221      8.0   946.7    0.00     456    94.8
  90   12:00   84.9    12    2.4   231      5.0   946.5    0.00     380    92.1
  90   12:10   85.3    12    2.9   247      5.5   946.3    0.00     385    91.8
  90   12:20   85.3    12    2.5   256      4.6   946.1    0.00     472    94.1
  90   12:30   86.9    11    1.9   216      4.9   945.9    0.00     489    95.6
  90   12:40   87.6    11    2.9   105      5.6   945.7    0.00     512    100.6
  90   12:50   86.7    11    3.3   359      6.8   945.4    0.00     414    99.5
  90   13:00   88.4    11    4.3   149      9.1   945.2    0.00     531    100.9
  90   13:10   90.3    10    6.0   198     16.9   944.9    0.00     675    102.5
  90   13:20   89.5    10    6.5   210     17.3   944.7    0.00     568    99.5
  90   13:30   89.5    10    5.4   204     18.5   944.5    0.00     544    101.2
  90   13:40   89.5    10    9.0   219     18.9   944.2    0.00     600    100.2
  90   13:50   89.6    10    8.2   218     20.4   944.1    0.00     581    100.7
  90   14:00   90.1     9    8.2   210     19.8   943.8    0.00     590    101.9
  90   14:10   90.0     9    8.2   216     15.4   943.7    0.00     573    101.4
  90   14:20   90.2     9    8.1   207     18.2   943.5    0.00     567    102.3
  90   14:30   89.8     9    8.9   198     22.6   943.4    0.00     429    100.0
  90   14:40   89.4     9    8.6   226     19.3   943.3    0.00     472    99.5
  90   14:50   89.0    10    8.7   206     17.5   943.2    0.00     304    96.9
  90   15:00   89.5    10    9.6   190     24.2   943.1    0.00     452    99.8
  90   15:10   89.8    10    6.1   196     17.6   943.1    0.00     402    100.4
  90   15:20   89.6    10    6.7   208     17.8   943.0    0.00     372    99.5
  90   15:30   89.8    10    7.3   204     17.0   942.9    0.00     380    99.9
  90   15:40   90.0    10    7.7   205     22.6   942.7    0.00     349    99.8
  90   15:50   90.6    10    6.1   195     15.1   942.6    0.00     306    99.7
  90   16:00   89.9    10    9.4   181     18.3   942.5    0.00     287    98.6
  90   16:10   90.0    10    8.9   186     18.8   942.3    0.00     262    98.2
  90   16:20   89.8    10    5.5   198     16.5   942.1    0.00     234    98.5
  90   16:30   89.9    10    9.2   188     19.2   942.0    0.00     208    96.8
  90   16:40   89.9    10    5.9   203     18.0   941.9    0.00     178    96.2
  90   16:50   89.3    10    7.3   183     19.0   941.8    0.00     149    95.2
  90   17:00   89.0    10    7.0   185     20.0   941.8    0.00     126    94.0
  90   17:10   88.8    10    6.1   200     23.1   941.7    0.00     103    92.7
  90   17:20   88.2     9    4.9   202     18.1   941.7    0.00      69    90.5
  90   17:30   87.5     9    3.7   211     18.8   941.7    0.00      49    87.7
  90   17:40   86.8    10    5.5   216     20.8   941.6    0.00      30    86.8
  90   17:50   85.8     9    4.1   216     17.7   941.6    0.00      12    86.0
  90   18:00   85.3     9    3.3   214     15.9   941.6    0.00       7    85.2
  90   18:10   84.9     8    3.0   209     17.0   941.7    0.00       3    84.8
  90   18:20   84.6     8    2.9   211     18.6   941.7    0.00       3    84.3
  90   18:30   83.8     8    0.9   214     11.1   941.8    0.00       2    83.2
  90   18:40   82.9     8    0.3   222      6.1   941.8    0.00       1    82.3
  90   18:50   81.7     9    0.1   222      4.2   941.9    0.00       1    80.5
  90   19:00   80.2     9    0.0     0      0.0   942.0    0.00       1    79.5
  90   19:10   79.4     9    0.0     0      0.0   942.2    0.00       1    78.6
  90   19:20   78.8     9    0.0     0      0.0   942.2    0.00       0    77.2
  90   19:30   78.8     9    0.0     0      0.0   942.2    0.00       0    76.6
  90   19:40   78.9     9    0.0     0      0.0   942.2    0.00       0    77.1
  90   19:50   79.6     9    0.1   247      5.1   942.2    0.00       1    78.8
  90   20:00   80.1     9    0.9   239      9.1   942.1    0.00       1    79.2
  90   20:10   79.9     9    0.6   240      7.1   942.1    0.00       0    78.9
  90   20:20   79.1    10    0.2   238      6.7   942.1    0.00       0    78.3
  90   20:30   78.8    10    0.1   232      4.7   942.0    0.00       1    77.9
  90   20:40   78.5    10    0.1   231      6.4   942.0    0.00       0    77.6
  90   20:50   78.4    10    0.1   231      6.4   942.0    0.00       1    77.4
  90   21:00   78.4    10    0.4   235      7.6   941.9    0.00       0    77.5
  90   21:10   76.7    11    0.0     0      0.0   942.0    0.00       1    74.8
  90   21:20   76.0    12    0.0     0      0.0   942.1    0.00       0    74.3
  90   21:30   74.5    12    0.0     0      0.0   942.2    0.00       0    71.8
  90   21:40   72.4    12    0.0     0      0.0   942.4    0.00       0    71.1
  90   21:50   71.3    13    0.0     0      0.0   942.5    0.00       0    69.9
  90   22:00   71.7    13    0.0     0      0.0   942.5    0.00       0    71.2
  90   22:10   73.5    12    0.0     0      0.0   942.5    0.00       0    71.1
  90   22:20   74.1    12    0.0    96      4.3   942.5    0.00       0    71.4
  90   22:30   73.6    12    0.0     0      0.0   942.6    0.00       0    71.9
  90   22:40   73.9    12    0.0     0      0.0   942.6    0.00       0    72.5
  90   22:50   73.6    13    0.0     0      0.0   942.5    0.00       0    72.7
  90   23:00   74.4    12    0.0     0      0.0   942.4    0.00       0    73.4
  90   23:10   74.0    13    0.0     0      0.0   942.4    0.00       0    71.9
  90   23:20   73.2    13    0.0     0      0.0   942.4    0.00       0    70.4
  90   23:30   72.7    13    0.0     0      0.0   942.4    0.00       0    70.9
  90   23:40   73.1    13    0.0     0      0.0   942.4    0.00       0    70.0
  90   23:50   71.2    14    0.0     0      0.0   942.5    0.00       0    68.1
  91    0:00   71.0    14    0.0     0      0.0   942.5    0.00       0    67.9
  91    0:10   71.7    14    0.0     0      0.0   942.7    0.00       0    68.6
  91    0:20   72.6    14    0.0     0      0.0   943.0    0.00       0    70.6
  91    0:30   73.0    14    5.6   301     16.1   943.1    0.00       0    71.7
  91    0:40   72.6    14    5.1   290     16.1   943.2    0.00       0    71.8
  91    0:50   73.9    13    3.4   275     15.6   943.2    0.00       0    73.1
  91    1:00   73.8    13    0.8   261      9.9   943.3    0.00       0    72.7
  91    1:10   73.8    14    1.0   277      9.4   943.4    0.00       0    72.7
  91    1:20   73.8    14    0.8   262      9.3   943.4    0.00       0    72.7
  91    1:30   70.9    15    0.1   254     10.5   943.5    0.00       0    68.4
  91    1:40   65.9    19    0.0    82      0.1   943.5    0.00       0    64.7

Return to Mesquite, Nevada graphs page.


Western Regional Climate Center,wrcc@dri.edu